Danbury, IA (51019)

3:54 PM CDT on July 28, 2014 (GMT -0500)
The Danbury Review (KIADANBU2) Elev 1162 ft | 42.24 °N, 95.72 °W | Change Station

Current weather conditions updated 4 minutes ago

Partly Cloudy
Partly Cloudy
74.9 °F
Feels Like 77 °F
N
0.0
Wind Variable Wind from NW
Gusts 10.0 mph

Today is forecast to be nearly the same temperature as yesterday.

Today
High -- | Low -- °F
--% Chance of Precip.
Yesterday
High -- | Low -- °F
Precip. -- in
6:11 AM 8:46 PM
Waxing Crescent, 3% visible
Pressure 30.21 in
Visibility 10.0 miles
Clouds Few 3700 ft
Heat Index 77 °F
Dew Point 60 °F
Humidity 59%
Rainfall -999.00 in
Snow Depth Not available.
UV 8 out of 12
Pollen 5.60 out of 12
Air Quality Not available.
Flu Activity Not available.
METAR KDNS 282035Z AUTO 30007KT 10SM FEW037 23/14 A3021 RMK AO2

More Conditions Fewer Conditions

Pressure 30.21 in
Visibility 10.0 miles
Clouds Few 3700 ft
Heat Index 77 °F
Dew Point 60 °F
Humidity 59%
Rainfall -999.00 in
Snow Depth Not available.
UV 8 out of 12
Pollen 5.60 out of 12
Air Quality Not available.
Flu Activity Not available.
METAR KDNS 282035Z AUTO 30007KT 10SM FEW037 23/14 A3021 RMK AO2

More Conditions Fewer Conditions

10-Day Weather Forecast

Almanac

Astronomy

Jul. 28, 2014 Rise Set
Actual Time 6:11 AM CDT 8:46 PM CDT
Civil Twilight 5:39 AM CDT 9:18 PM CDT
Nautical Twilight 4:59 AM CDT 9:58 PM CDT
Astronomical Twilight 4:13 AM CDT 10:43 PM CDT
Moon 7:57 AM CDT 9:25 PM CDT
Length of Visible Light 15h 38m
Length of Day
14h 34m
Tomorrow will be 2m 4s shorter.
Waxing Crescent, 3% of the Moon is Illuminated
Today
Waxing Crescent
Aug 3
First Quarter
Aug 10
Full
Aug 17
Last Quarter
Aug 25
New

Today's Extremes

State Highs State Lows

Community

WunderPhotos

Upload Photos

1,738,488 photos uploaded!

Nearby

Snow Depth

Station Depth Elevation
No new snow has been reported.

Earthquake Activity

City Distance Mag. Time & Date
No recent earthquake activity has been reported nearby.
Minimum magnitude displayed is 2.5.

Coastal Water Temperatures

Place Temperature
No Stations Reporting

Nearby Weather Stations

Station Location Temp. Heat Index Dew Point Humidity Wind Precip. Elev Updated Type
The Danbury Review, Danbury, IA 74.9 °F 77 °F 60 °F 59% NW  at  0.0 mph 0.00 in / hr 1162 ft 3:50 PM CDT Normal
MesoWest SHAGBARK HILLS , Correctionville, IA 71 °F 75 °F 58 °F 63% North  at  3 mph 0.00 in / hr 1399 ft 2:00 PM CDT MADIS
Castana, Castana, IA 77.2 °F 79 °F 60 °F 56% West  at  8.1 mph 0.00 in / hr 1099 ft 3:54 PM CDT Rapid Fire
HADS WEST FORK DITCH AT HORNICK IA, Rodney, IA 71 °F - - - North  at  - 0.00 in / hr 1045 ft 3:00 PM CDT MADIS
Oxendales Arthur, IA, Arthur, IA 73.4 °F 76 °F 61 °F 66% WNW  at  3.6 mph 0.00 in / hr 1496 ft 3:54 PM CDT Rapid Fire

Show More Stations Show Fewer Stations